Alyeska Resort
Max's Hourly Weather Roundup
ALYESKA_MAX 7/30/2016
Click Here for Graph

        DATE  TIME   Air  Wind  Wind  Wind  BATT   Rel
                    Temp   Spd   Dir  Gust  Volt  Hum%
                      F   MPH   AVG   MPH   AVG   AVG

   7/30/2016 21:00    49     2   174     7 13.81   100
   7/30/2016 20:00    49     2   170    11 13.76   100
   7/30/2016 19:00    48     3   256     6 13.73   100
   7/30/2016 18:00    52     5   188    12 13.64    90
   7/30/2016 17:00    53     7   123    15 13.60    87
   7/30/2016 16:00    51     6   172    16 13.60    95
   7/30/2016 15:00    53     6   129    14 13.58    91
   7/30/2016 14:00    49     4   168    11 13.63    99
   7/30/2016 13:00    48     2   168     7 13.64   100
   7/30/2016 12:00    48     5   140    10 13.63   100
   7/30/2016 11:00    47     6   134    14 13.82   100
   7/30/2016 10:00    46     8   145    15 13.54   100
   7/30/2016 09:00    46     8   146    12 12.98   100
   7/30/2016 08:00    46    10   140    16 12.81   100
   7/30/2016 07:00    46     5   132    12 12.76   100
   7/30/2016 06:00    45     6   139    12 12.77   100
   7/30/2016 05:00    45     8   134    20 12.79   100
   7/30/2016 04:00    46     6   136    19 12.82   100
   7/30/2016 03:00    46     2   154     6 12.85   100
   7/30/2016 02:00    46     2   132     5 12.88   100
   7/30/2016 01:00    47     3    80     7 12.93   100
   7/29/2016 24:00    47     2    91     5 13.01   100
   7/29/2016 23:00    48     1   136     4 13.16   100
   7/29/2016 22:00    48     3   208     5 13.42   100


Click Here for Graph